Terminal Aerodrome Forecast
Issued by NWS

Home | Current Version | Previous Version | Text Only | Print | Product List | Glossary On
Versions: 1 2 3 4 5 6 7 8 9 10 11 12 13 14 15 16 17 18 19
465
FTUS42 KKEY 210520
TAFMTH
TAF
KMTH 210520Z 2106/2206 VRB04KT P6SM SCT025
     FM211500 16005KT P6SM SCT030=

USA.gov is the U.S. government's official web portal to all federal, state and local government web resources and services.